Terminal Aerodrome Forecast
Issued by NWS

Home | Current Version | Previous Version | Text Only | Print | Product List | Glossary On
Versions: 1 2 3 4 5 6 7 8 9 10 11 12 13
000
FTUS44 KTSA 311100
TAFFYV
TAF
KFYV 311120Z 3112/0112 VRB03KT P6SM BKN090
     FM311800 15006KT P6SM OVC050
     FM010000 16007KT 5SM -RA BR BKN035
     FM010300 16008KT 4SM RA BR OVC015=

USA.gov is the U.S. government's official web portal to all federal, state and local government web resources and services.